sensor_id;sensor_type;location;lat;lon;timestamp;temperature;humidity
64882;HTU21D;51375;44.836;38.672;2024-03-25T00:01:34;7.17;64.67
64882;HTU21D;51375;44.836;38.672;2024-03-25T00:04:00;7.12;64.79
64882;HTU21D;51375;44.836;38.672;2024-03-25T00:06:26;7.10;64.89
64882;HTU21D;51375;44.836;38.672;2024-03-25T00:08:52;7.05;64.89
64882;HTU21D;51375;44.836;38.672;2024-03-25T00:11:19;7.04;65.06
64882;HTU21D;51375;44.836;38.672;2024-03-25T00:13:48;7.02;65.11
64882;HTU21D;51375;44.836;38.672;2024-03-25T00:16:14;7.02;65.06
64882;HTU21D;51375;44.836;38.672;2024-03-25T00:18:40;7.01;65.11
64882;HTU21D;51375;44.836;38.672;2024-03-25T00:21:06;7.02;65.16
64882;HTU21D;51375;44.836;38.672;2024-03-25T00:23:32;7.01;65.20
64882;HTU21D;51375;44.836;38.672;2024-03-25T00:25:57;7.01;65.27
64882;HTU21D;51375;44.836;38.672;2024-03-25T00:28:23;7.01;65.21
64882;HTU21D;51375;44.836;38.672;2024-03-25T00:30:49;7.00;65.17
64882;HTU21D;51375;44.836;38.672;2024-03-25T00:33:15;6.99;65.15
64882;HTU21D;51375;44.836;38.672;2024-03-25T00:35:43;6.98;65.16
64882;HTU21D;51375;44.836;38.672;2024-03-25T00:38:09;6.97;65.26
64882;HTU21D;51375;44.836;38.672;2024-03-25T00:40:35;6.99;65.28
64882;HTU21D;51375;44.836;38.672;2024-03-25T00:43:01;6.98;65.25
64882;HTU21D;51375;44.836;38.672;2024-03-25T00:45:27;6.96;65.20
64882;HTU21D;51375;44.836;38.672;2024-03-25T00:47:57;6.94;65.24
64882;HTU21D;51375;44.836;38.672;2024-03-25T00:50:25;6.91;65.14
64882;HTU21D;51375;44.836;38.672;2024-03-25T00:52:51;6.90;65.10
64882;HTU21D;51375;44.836;38.672;2024-03-25T00:55:17;6.87;65.03
64882;HTU21D;51375;44.836;38.672;2024-03-25T00:57:43;6.84;65.08
64882;HTU21D;51375;44.836;38.672;2024-03-25T01:00:10;6.85;65.05
64882;HTU21D;51375;44.836;38.672;2024-03-25T01:02:36;6.84;65.10
64882;HTU21D;51375;44.836;38.672;2024-03-25T01:05:04;6.82;65.07
64882;HTU21D;51375;44.836;38.672;2024-03-25T01:07:31;6.80;65.08
64882;HTU21D;51375;44.836;38.672;2024-03-25T01:09:57;6.80;65.11
64882;HTU21D;51375;44.836;38.672;2024-03-25T01:12:24;6.79;65.06
64882;HTU21D;51375;44.836;38.672;2024-03-25T01:14:51;6.78;65.15
64882;HTU21D;51375;44.836;38.672;2024-03-25T01:17:17;6.76;65.24
64882;HTU21D;51375;44.836;38.672;2024-03-25T01:19:43;6.78;65.21
64882;HTU21D;51375;44.836;38.672;2024-03-25T01:22:09;6.75;65.16
64882;HTU21D;51375;44.836;38.672;2024-03-25T01:24:35;6.72;65.14
64882;HTU21D;51375;44.836;38.672;2024-03-25T01:27:01;6.70;65.08
64882;HTU21D;51375;44.836;38.672;2024-03-25T01:29:27;6.67;65.04
64882;HTU21D;51375;44.836;38.672;2024-03-25T01:31:53;6.64;64.95
64882;HTU21D;51375;44.836;38.672;2024-03-25T01:34:19;6.60;65.03
64882;HTU21D;51375;44.836;38.672;2024-03-25T01:36:45;6.61;65.05
64882;HTU21D;51375;44.836;38.672;2024-03-25T01:39:11;6.59;65.10
64882;HTU21D;51375;44.836;38.672;2024-03-25T01:41:37;6.57;65.17
64882;HTU21D;51375;44.836;38.672;2024-03-25T01:44:03;6.56;65.10
64882;HTU21D;51375;44.836;38.672;2024-03-25T01:46:29;6.54;65.15
64882;HTU21D;51375;44.836;38.672;2024-03-25T01:48:55;6.51;65.14
64882;HTU21D;51375;44.836;38.672;2024-03-25T01:51:24;6.49;65.16
64882;HTU21D;51375;44.836;38.672;2024-03-25T01:53:52;6.43;65.09
64882;HTU21D;51375;44.836;38.672;2024-03-25T01:56:19;6.38;65.14
64882;HTU21D;51375;44.836;38.672;2024-03-25T01:58:45;6.35;65.16
64882;HTU21D;51375;44.836;38.672;2024-03-25T02:01:11;6.30;65.12
64882;HTU21D;51375;44.836;38.672;2024-03-25T02:03:43;6.21;65.16
64882;HTU21D;51375;44.836;38.672;2024-03-25T02:06:13;6.12;65.36
64882;HTU21D;51375;44.836;38.672;2024-03-25T02:08:42;6.04;65.56
64882;HTU21D;51375;44.836;38.672;2024-03-25T02:11:09;6.01;65.72
64882;HTU21D;51375;44.836;38.672;2024-03-25T02:13:37;6.02;65.68
64882;HTU21D;51375;44.836;38.672;2024-03-25T02:16:03;6.04;65.75
64882;HTU21D;51375;44.836;38.672;2024-03-25T02:18:30;6.07;65.80
64882;HTU21D;51375;44.836;38.672;2024-03-25T02:20:57;6.10;65.80
64882;HTU21D;51375;44.836;38.672;2024-03-25T02:23:24;6.11;65.85
64882;HTU21D;51375;44.836;38.672;2024-03-25T02:25:50;6.12;65.74
64882;HTU21D;51375;44.836;38.672;2024-03-25T02:28:17;6.14;65.66
64882;HTU21D;51375;44.836;38.672;2024-03-25T02:30:43;6.14;65.61
64882;HTU21D;51375;44.836;38.672;2024-03-25T02:33:09;6.12;65.56
64882;HTU21D;51375;44.836;38.672;2024-03-25T02:35:35;6.12;65.53
64882;HTU21D;51375;44.836;38.672;2024-03-25T02:38:02;6.09;65.46
64882;HTU21D;51375;44.836;38.672;2024-03-25T02:40:31;6.08;65.46
64882;HTU21D;51375;44.836;38.672;2024-03-25T02:42:58;6.09;65.43
64882;HTU21D;51375;44.836;38.672;2024-03-25T02:45:24;6.06;65.31
64882;HTU21D;51375;44.836;38.672;2024-03-25T02:47:51;6.02;65.33
64882;HTU21D;51375;44.836;38.672;2024-03-25T02:50:17;6.02;65.39
64882;HTU21D;51375;44.836;38.672;2024-03-25T02:52:43;6.02;65.44
64882;HTU21D;51375;44.836;38.672;2024-03-25T02:55:09;6.01;65.56
64882;HTU21D;51375;44.836;38.672;2024-03-25T02:57:35;6.00;65.60
64882;HTU21D;51375;44.836;38.672;2024-03-25T03:00:01;6.00;65.60
64882;HTU21D;51375;44.836;38.672;2024-03-25T03:02:27;6.00;65.58
64882;HTU21D;51375;44.836;38.672;2024-03-25T03:04:53;5.99;65.62
64882;HTU21D;51375;44.836;38.672;2024-03-25T03:07:19;5.98;65.58
64882;HTU21D;51375;44.836;38.672;2024-03-25T03:09:45;5.98;65.57
64882;HTU21D;51375;44.836;38.672;2024-03-25T03:12:11;5.97;65.63
64882;HTU21D;51375;44.836;38.672;2024-03-25T03:14:37;5.98;65.73
64882;HTU21D;51375;44.836;38.672;2024-03-25T03:17:03;5.96;65.75
64882;HTU21D;51375;44.836;38.672;2024-03-25T03:19:31;5.96;65.72
64882;HTU21D;51375;44.836;38.672;2024-03-25T03:21:57;5.97;65.69
64882;HTU21D;51375;44.836;38.672;2024-03-25T03:24:23;5.96;65.66
64882;HTU21D;51375;44.836;38.672;2024-03-25T03:26:49;5.95;65.71
64882;HTU21D;51375;44.836;38.672;2024-03-25T03:29:15;5.96;65.76
64882;HTU21D;51375;44.836;38.672;2024-03-25T03:31:41;5.99;65.84
64882;HTU21D;51375;44.836;38.672;2024-03-25T03:34:07;6.01;65.75
64882;HTU21D;51375;44.836;38.672;2024-03-25T03:36:33;6.04;65.78
64882;HTU21D;51375;44.836;38.672;2024-03-25T03:39:01;6.00;65.75
64882;HTU21D;51375;44.836;38.672;2024-03-25T03:41:29;5.98;65.82
64882;HTU21D;51375;44.836;38.672;2024-03-25T03:43:55;5.97;65.94
64882;HTU21D;51375;44.836;38.672;2024-03-25T03:46:21;5.98;66.11
64882;HTU21D;51375;44.836;38.672;2024-03-25T03:48:47;5.99;66.30
64882;HTU21D;51375;44.836;38.672;2024-03-25T03:51:12;6.01;66.52
64882;HTU21D;51375;44.836;38.672;2024-03-25T03:53:39;6.02;66.62
64882;HTU21D;51375;44.836;38.672;2024-03-25T03:56:05;6.06;66.59
64882;HTU21D;51375;44.836;38.672;2024-03-25T03:58:31;6.07;66.64
64882;HTU21D;51375;44.836;38.672;2024-03-25T04:00:57;6.08;66.72
64882;HTU21D;51375;44.836;38.672;2024-03-25T04:03:24;6.13;66.91
64882;HTU21D;51375;44.836;38.672;2024-03-25T04:05:50;6.20;66.82
64882;HTU21D;51375;44.836;38.672;2024-03-25T04:08:16;6.25;66.80
64882;HTU21D;51375;44.836;38.672;2024-03-25T04:10:44;6.30;66.77
64882;HTU21D;51375;44.836;38.672;2024-03-25T04:13:10;6.35;66.62
64882;HTU21D;51375;44.836;38.672;2024-03-25T04:15:40;6.39;66.58
64882;HTU21D;51375;44.836;38.672;2024-03-25T04:18:08;6.42;66.51
64882;HTU21D;51375;44.836;38.672;2024-03-25T04:20:41;6.43;66.47
64882;HTU21D;51375;44.836;38.672;2024-03-25T04:23:07;6.45;66.66
64882;HTU21D;51375;44.836;38.672;2024-03-25T04:25:34;6.51;66.80
64882;HTU21D;51375;44.836;38.672;2024-03-25T04:28:04;6.56;66.78
64882;HTU21D;51375;44.836;38.672;2024-03-25T04:30:32;6.64;66.79
64882;HTU21D;51375;44.836;38.672;2024-03-25T04:32:58;6.70;66.78
64882;HTU21D;51375;44.836;38.672;2024-03-25T04:35:24;6.76;66.85
64882;HTU21D;51375;44.836;38.672;2024-03-25T04:37:50;6.85;66.92
64882;HTU21D;51375;44.836;38.672;2024-03-25T04:40:16;6.93;67.05
64882;HTU21D;51375;44.836;38.672;2024-03-25T04:42:45;7.00;67.09
64882;HTU21D;51375;44.836;38.672;2024-03-25T04:45:11;7.10;67.16
64882;HTU21D;51375;44.836;38.672;2024-03-25T04:47:38;7.19;67.21
64882;HTU21D;51375;44.836;38.672;2024-03-25T04:50:04;7.30;67.21
64882;HTU21D;51375;44.836;38.672;2024-03-25T04:52:31;7.34;67.47
64882;HTU21D;51375;44.836;38.672;2024-03-25T04:54:56;7.44;67.68
64882;HTU21D;51375;44.836;38.672;2024-03-25T04:57:23;7.54;67.78
64882;HTU21D;51375;44.836;38.672;2024-03-25T04:59:50;7.65;67.86
64882;HTU21D;51375;44.836;38.672;2024-03-25T05:02:16;7.76;67.94
64882;HTU21D;51375;44.836;38.672;2024-03-25T05:04:42;7.86;68.05
64882;HTU21D;51375;44.836;38.672;2024-03-25T05:07:08;7.96;68.20
64882;HTU21D;51375;44.836;38.672;2024-03-25T05:09:34;8.05;68.27
64882;HTU21D;51375;44.836;38.672;2024-03-25T05:12:00;8.14;68.27
64882;HTU21D;51375;44.836;38.672;2024-03-25T05:14:26;8.26;68.26
64882;HTU21D;51375;44.836;38.672;2024-03-25T05:16:52;8.34;68.35
64882;HTU21D;51375;44.836;38.672;2024-03-25T05:19:19;8.45;68.44
64882;HTU21D;51375;44.836;38.672;2024-03-25T05:21:45;8.52;68.60
64882;HTU21D;51375;44.836;38.672;2024-03-25T05:24:11;8.64;68.68
64882;HTU21D;51375;44.836;38.672;2024-03-25T05:26:37;8.77;68.61
64882;HTU21D;51375;44.836;38.672;2024-03-25T05:29:03;8.89;68.58
64882;HTU21D;51375;44.836;38.672;2024-03-25T05:31:29;9.02;68.51
64882;HTU21D;51375;44.836;38.672;2024-03-25T05:33:57;9.15;68.46
64882;HTU21D;51375;44.836;38.672;2024-03-25T05:36:25;9.27;68.42
64882;HTU21D;51375;44.836;38.672;2024-03-25T05:38:52;9.38;68.44
64882;HTU21D;51375;44.836;38.672;2024-03-25T05:41:18;9.51;68.38
64882;HTU21D;51375;44.836;38.672;2024-03-25T05:43:44;9.62;68.26
64882;HTU21D;51375;44.836;38.672;2024-03-25T05:46:10;9.74;68.26
64882;HTU21D;51375;44.836;38.672;2024-03-25T05:48:37;9.85;68.30
64882;HTU21D;51375;44.836;38.672;2024-03-25T05:51:06;9.96;68.20
64882;HTU21D;51375;44.836;38.672;2024-03-25T05:53:35;10.08;68.20
64882;HTU21D;51375;44.836;38.672;2024-03-25T05:56:04;10.19;68.15
64882;HTU21D;51375;44.836;38.672;2024-03-25T05:58:30;10.28;68.17
64882;HTU21D;51375;44.836;38.672;2024-03-25T06:00:56;10.37;68.21
64882;HTU21D;51375;44.836;38.672;2024-03-25T06:03:22;10.43;68.36
64882;HTU21D;51375;44.836;38.672;2024-03-25T06:05:48;10.51;68.47
64882;HTU21D;51375;44.836;38.672;2024-03-25T06:08:15;10.59;68.51
64882;HTU21D;51375;44.836;38.672;2024-03-25T06:10:51;10.66;68.56
64882;HTU21D;51375;44.836;38.672;2024-03-25T06:13:17;10.79;68.55
64882;HTU21D;51375;44.836;38.672;2024-03-25T06:15:44;10.86;68.58
64882;HTU21D;51375;44.836;38.672;2024-03-25T06:18:11;10.88;68.55
64882;HTU21D;51375;44.836;38.672;2024-03-25T06:20:37;10.90;68.71
64882;HTU21D;51375;44.836;38.672;2024-03-25T06:23:04;10.92;68.83
64882;HTU21D;51375;44.836;38.672;2024-03-25T06:25:31;10.98;68.91
64882;HTU21D;51375;44.836;38.672;2024-03-25T06:28:00;11.05;68.79
64882;HTU21D;51375;44.836;38.672;2024-03-25T06:30:30;11.16;68.54
64882;HTU21D;51375;44.836;38.672;2024-03-25T06:33:16;11.25;68.52
64882;HTU21D;51375;44.836;38.672;2024-03-25T06:36:01;11.37;68.40
64882;HTU21D;51375;44.836;38.672;2024-03-25T06:38:34;11.46;68.39
64882;HTU21D;51375;44.836;38.672;2024-03-25T06:41:02;11.56;68.19
64882;HTU21D;51375;44.836;38.672;2024-03-25T06:43:29;11.66;68.08
64882;HTU21D;51375;44.836;38.672;2024-03-25T06:45:57;11.76;67.95
64882;HTU21D;51375;44.836;38.672;2024-03-25T06:48:24;11.83;67.88
64882;HTU21D;51375;44.836;38.672;2024-03-25T06:50:56;11.91;67.72
64882;HTU21D;51375;44.836;38.672;2024-03-25T06:53:29;12.03;67.46
64882;HTU21D;51375;44.836;38.672;2024-03-25T06:56:01;12.08;67.45
64882;HTU21D;51375;44.836;38.672;2024-03-25T06:58:28;12.19;67.31
64882;HTU21D;51375;44.836;38.672;2024-03-25T07:00:56;12.31;66.91
64882;HTU21D;51375;44.836;38.672;2024-03-25T07:03:25;12.36;66.72
64882;HTU21D;51375;44.836;38.672;2024-03-25T07:05:52;12.45;66.81
64882;HTU21D;51375;44.836;38.672;2024-03-25T07:08:20;12.55;66.61
64882;HTU21D;51375;44.836;38.672;2024-03-25T07:10:49;12.62;66.09
64882;HTU21D;51375;44.836;38.672;2024-03-25T07:13:16;12.66;65.89
64882;HTU21D;51375;44.836;38.672;2024-03-25T07:15:44;12.72;66.08
64882;HTU21D;51375;44.836;38.672;2024-03-25T07:18:11;12.82;65.87
64882;HTU21D;51375;44.836;38.672;2024-03-25T07:20:40;12.88;65.48
64882;HTU21D;51375;44.836;38.672;2024-03-25T07:23:08;12.93;65.49
64882;HTU21D;51375;44.836;38.672;2024-03-25T07:25:35;12.99;65.06
64882;HTU21D;51375;44.836;38.672;2024-03-25T07:28:06;13.01;65.26
64882;HTU21D;51375;44.836;38.672;2024-03-25T07:30:34;13.11;65.43
64882;HTU21D;51375;44.836;38.672;2024-03-25T07:33:04;13.25;65.13
64882;HTU21D;51375;44.836;38.672;2024-03-25T07:35:34;13.34;64.77
64882;HTU21D;51375;44.836;38.672;2024-03-25T07:38:02;13.45;64.72
64882;HTU21D;51375;44.836;38.672;2024-03-25T07:40:29;13.53;63.92
64882;HTU21D;51375;44.836;38.672;2024-03-25T07:42:55;13.54;63.99
64882;HTU21D;51375;44.836;38.672;2024-03-25T07:45:22;13.62;64.01
64882;HTU21D;51375;44.836;38.672;2024-03-25T07:47:48;13.71;64.04
64882;HTU21D;51375;44.836;38.672;2024-03-25T07:50:14;13.81;63.78
64882;HTU21D;51375;44.836;38.672;2024-03-25T07:52:43;13.90;63.11
64882;HTU21D;51375;44.836;38.672;2024-03-25T07:55:10;13.97;62.95
64882;HTU21D;51375;44.836;38.672;2024-03-25T07:57:36;14.01;62.68
64882;HTU21D;51375;44.836;38.672;2024-03-25T08:00:03;14.09;62.53
64882;HTU21D;51375;44.836;38.672;2024-03-25T08:02:38;14.17;62.50
64882;HTU21D;51375;44.836;38.672;2024-03-25T08:05:04;14.28;61.60
64882;HTU21D;51375;44.836;38.672;2024-03-25T08:07:31;14.35;61.63
64882;HTU21D;51375;44.836;38.672;2024-03-25T08:09:57;14.48;61.34
64882;HTU21D;51375;44.836;38.672;2024-03-25T08:12:24;14.56;61.29
64882;HTU21D;51375;44.836;38.672;2024-03-25T08:14:50;14.68;60.65
64882;HTU21D;51375;44.836;38.672;2024-03-25T08:17:16;14.70;60.06
64882;HTU21D;51375;44.836;38.672;2024-03-25T08:19:46;14.75;59.99
64882;HTU21D;51375;44.836;38.672;2024-03-25T08:22:12;14.83;60.17
64882;HTU21D;51375;44.836;38.672;2024-03-25T08:24:38;14.92;58.89
64882;HTU21D;51375;44.836;38.672;2024-03-25T08:27:04;14.93;59.57
64882;HTU21D;51375;44.836;38.672;2024-03-25T08:29:30;14.99;59.80
64882;HTU21D;51375;44.836;38.672;2024-03-25T08:31:56;15.11;59.57
64882;HTU21D;51375;44.836;38.672;2024-03-25T08:34:22;15.19;58.93
64882;HTU21D;51375;44.836;38.672;2024-03-25T08:36:48;15.26;58.35
64882;HTU21D;51375;44.836;38.672;2024-03-25T08:39:14;15.28;58.51
64882;HTU21D;51375;44.836;38.672;2024-03-25T08:41:39;15.37;58.05
64882;HTU21D;51375;44.836;38.672;2024-03-25T08:44:05;15.44;58.04
64882;HTU21D;51375;44.836;38.672;2024-03-25T08:46:31;15.49;57.93
64882;HTU21D;51375;44.836;38.672;2024-03-25T08:48:58;15.58;57.51
64882;HTU21D;51375;44.836;38.672;2024-03-25T08:51:24;15.58;56.42
64882;HTU21D;51375;44.836;38.672;2024-03-25T08:53:49;15.60;56.49
64882;HTU21D;51375;44.836;38.672;2024-03-25T08:56:15;15.69;56.55
64882;HTU21D;51375;44.836;38.672;2024-03-25T08:58:42;15.80;55.31
64882;HTU21D;51375;44.836;38.672;2024-03-25T09:01:08;15.84;55.29
64882;HTU21D;51375;44.836;38.672;2024-03-25T09:03:35;15.92;55.36
64882;HTU21D;51375;44.836;38.672;2024-03-25T09:06:03;16.07;55.29
64882;HTU21D;51375;44.836;38.672;2024-03-25T09:08:29;16.18;54.66
64882;HTU21D;51375;44.836;38.672;2024-03-25T09:11:02;16.26;53.75
64882;HTU21D;51375;44.836;38.672;2024-03-25T09:13:29;16.30;53.90
64882;HTU21D;51375;44.836;38.672;2024-03-25T09:15:55;16.37;53.17
64882;HTU21D;51375;44.836;38.672;2024-03-25T09:18:21;16.41;52.84
64882;HTU21D;51375;44.836;38.672;2024-03-25T09:20:47;16.50;52.74
64882;HTU21D;51375;44.836;38.672;2024-03-25T09:23:13;16.57;51.14
64882;HTU21D;51375;44.836;38.672;2024-03-25T09:25:39;16.59;51.40
64882;HTU21D;51375;44.836;38.672;2024-03-25T09:28:06;16.65;51.15
64882;HTU21D;51375;44.836;38.672;2024-03-25T09:30:32;16.74;51.62
64882;HTU21D;51375;44.836;38.672;2024-03-25T09:32:59;16.81;50.79
64882;HTU21D;51375;44.836;38.672;2024-03-25T09:35:25;16.91;50.79
64882;HTU21D;51375;44.836;38.672;2024-03-25T09:37:50;17.02;50.44
64882;HTU21D;51375;44.836;38.672;2024-03-25T09:40:16;17.07;50.38
64882;HTU21D;51375;44.836;38.672;2024-03-25T09:43:02;17.09;49.82
64882;HTU21D;51375;44.836;38.672;2024-03-25T09:45:29;17.17;50.52
64882;HTU21D;51375;44.836;38.672;2024-03-25T09:47:56;17.25;49.68
64882;HTU21D;51375;44.836;38.672;2024-03-25T09:50:22;17.33;48.66
64882;HTU21D;51375;44.836;38.672;2024-03-25T09:52:49;17.35;49.05
64882;HTU21D;51375;44.836;38.672;2024-03-25T09:55:16;17.49;49.21
64882;HTU21D;51375;44.836;38.672;2024-03-25T09:57:43;17.56;48.43
64882;HTU21D;51375;44.836;38.672;2024-03-25T10:00:10;17.62;46.30
64882;HTU21D;51375;44.836;38.672;2024-03-25T10:02:40;17.69;45.97
64882;HTU21D;51375;44.836;38.672;2024-03-25T10:05:07;17.74;45.38
64882;HTU21D;51375;44.836;38.672;2024-03-25T10:07:35;17.77;45.77
64882;HTU21D;51375;44.836;38.672;2024-03-25T10:10:05;17.80;45.94
64882;HTU21D;51375;44.836;38.672;2024-03-25T10:12:32;17.83;45.73
64882;HTU21D;51375;44.836;38.672;2024-03-25T10:14:58;17.89;45.59
64882;HTU21D;51375;44.836;38.672;2024-03-25T10:17:25;17.97;45.03
64882;HTU21D;51375;44.836;38.672;2024-03-25T10:19:53;18.07;44.70
64882;HTU21D;51375;44.836;38.672;2024-03-25T10:22:19;18.14;43.45
64882;HTU21D;51375;44.836;38.672;2024-03-25T10:24:45;18.23;42.61
64882;HTU21D;51375;44.836;38.672;2024-03-25T10:27:18;18.29;42.80
64882;HTU21D;51375;44.836;38.672;2024-03-25T10:29:46;18.33;41.68
64882;HTU21D;51375;44.836;38.672;2024-03-25T10:32:15;18.32;41.68
64882;HTU21D;51375;44.836;38.672;2024-03-25T10:34:41;18.33;41.99
64882;HTU21D;51375;44.836;38.672;2024-03-25T10:37:11;18.37;41.28
64882;HTU21D;51375;44.836;38.672;2024-03-25T10:39:50;18.47;40.39
64882;HTU21D;51375;44.836;38.672;2024-03-25T10:42:19;18.52;39.53
64882;HTU21D;51375;44.836;38.672;2024-03-25T10:44:47;18.50;39.25
64882;HTU21D;51375;44.836;38.672;2024-03-25T10:47:21;18.49;39.24
64882;HTU21D;51375;44.836;38.672;2024-03-25T10:49:49;18.51;39.23
64882;HTU21D;51375;44.836;38.672;2024-03-25T10:52:18;18.50;38.71
64882;HTU21D;51375;44.836;38.672;2024-03-25T10:54:47;18.47;38.33
64882;HTU21D;51375;44.836;38.672;2024-03-25T10:57:14;18.46;38.88
64882;HTU21D;51375;44.836;38.672;2024-03-25T10:59:42;18.50;38.93
64882;HTU21D;51375;44.836;38.672;2024-03-25T11:02:09;18.52;37.74
64882;HTU21D;51375;44.836;38.672;2024-03-25T11:04:36;18.52;37.39
64882;HTU21D;51375;44.836;38.672;2024-03-25T11:07:13;18.49;37.12
64882;HTU21D;51375;44.836;38.672;2024-03-25T11:09:41;18.46;36.25
64882;HTU21D;51375;44.836;38.672;2024-03-25T11:12:10;18.44;36.76
64882;HTU21D;51375;44.836;38.672;2024-03-25T11:14:38;18.44;37.14
64882;HTU21D;51375;44.836;38.672;2024-03-25T11:17:14;18.46;37.26
64882;HTU21D;51375;44.836;38.672;2024-03-25T11:19:42;18.48;37.41
64882;HTU21D;51375;44.836;38.672;2024-03-25T11:22:09;18.51;36.63
64882;HTU21D;51375;44.836;38.672;2024-03-25T11:24:46;18.49;35.85
64882;HTU21D;51375;44.836;38.672;2024-03-25T11:27:12;18.49;36.56
64882;HTU21D;51375;44.836;38.672;2024-03-25T11:29:39;18.50;36.43
64882;HTU21D;51375;44.836;38.672;2024-03-25T11:32:06;18.54;36.46
64882;HTU21D;51375;44.836;38.672;2024-03-25T11:34:33;18.55;35.53
64882;HTU21D;51375;44.836;38.672;2024-03-25T11:37:01;18.54;35.36
64882;HTU21D;51375;44.836;38.672;2024-03-25T11:39:27;18.51;35.11
64882;HTU21D;51375;44.836;38.672;2024-03-25T11:41:55;18.46;35.09
64882;HTU21D;51375;44.836;38.672;2024-03-25T11:44:28;18.42;34.56
64882;HTU21D;51375;44.836;38.672;2024-03-25T11:46:54;18.40;35.29
64882;HTU21D;51375;44.836;38.672;2024-03-25T11:49:21;18.42;35.66
64882;HTU21D;51375;44.836;38.672;2024-03-25T11:51:47;18.44;35.43
64882;HTU21D;51375;44.836;38.672;2024-03-25T11:54:13;18.48;35.38
64882;HTU21D;51375;44.836;38.672;2024-03-25T11:56:40;18.49;35.20
64882;HTU21D;51375;44.836;38.672;2024-03-25T11:59:08;18.50;35.15
64882;HTU21D;51375;44.836;38.672;2024-03-25T12:01:35;18.51;35.37
64882;HTU21D;51375;44.836;38.672;2024-03-25T12:04:11;18.55;35.08
64882;HTU21D;51375;44.836;38.672;2024-03-25T12:06:37;18.56;35.63
64882;HTU21D;51375;44.836;38.672;2024-03-25T12:09:03;18.62;35.47
64882;HTU21D;51375;44.836;38.672;2024-03-25T12:11:47;18.64;35.38
64882;HTU21D;51375;44.836;38.672;2024-03-25T12:14:14;18.65;35.31
64882;HTU21D;51375;44.836;38.672;2024-03-25T12:16:41;18.59;34.99
64882;HTU21D;51375;44.836;38.672;2024-03-25T12:19:08;18.54;34.53
64882;HTU21D;51375;44.836;38.672;2024-03-25T12:21:34;18.52;34.90
64882;HTU21D;51375;44.836;38.672;2024-03-25T12:24:00;18.50;35.29
64882;HTU21D;51375;44.836;38.672;2024-03-25T12:26:26;18.51;35.21
64882;HTU21D;51375;44.836;38.672;2024-03-25T12:28:52;18.51;35.22
64882;HTU21D;51375;44.836;38.672;2024-03-25T12:31:18;18.49;34.08
64882;HTU21D;51375;44.836;38.672;2024-03-25T12:33:44;18.44;33.71
64882;HTU21D;51375;44.836;38.672;2024-03-25T12:36:13;18.39;33.70
64882;HTU21D;51375;44.836;38.672;2024-03-25T12:38:40;18.34;34.08
64882;HTU21D;51375;44.836;38.672;2024-03-25T12:41:10;18.32;34.05
64882;HTU21D;51375;44.836;38.672;2024-03-25T12:43:43;18.32;33.32
64882;HTU21D;51375;44.836;38.672;2024-03-25T12:46:10;18.29;33.71
64882;HTU21D;51375;44.836;38.672;2024-03-25T12:48:39;18.27;33.02
64882;HTU21D;51375;44.836;38.672;2024-03-25T12:51:13;18.18;32.36
64882;HTU21D;51375;44.836;38.672;2024-03-25T12:53:39;18.12;33.34
64882;HTU21D;51375;44.836;38.672;2024-03-25T12:56:05;18.12;32.99
64882;HTU21D;51375;44.836;38.672;2024-03-25T12:58:31;18.13;33.12
64882;HTU21D;51375;44.836;38.672;2024-03-25T13:00:57;18.12;32.71
64882;HTU21D;51375;44.836;38.672;2024-03-25T13:03:23;18.05;32.50
64882;HTU21D;51375;44.836;38.672;2024-03-25T13:05:49;18.02;33.26
64882;HTU21D;51375;44.836;38.672;2024-03-25T13:08:15;18.06;33.52
64882;HTU21D;51375;44.836;38.672;2024-03-25T13:10:43;18.08;32.35
64882;HTU21D;51375;44.836;38.672;2024-03-25T13:13:09;18.02;32.13
64882;HTU21D;51375;44.836;38.672;2024-03-25T13:15:36;17.94;32.49
64882;HTU21D;51375;44.836;38.672;2024-03-25T13:18:03;17.90;32.28
64882;HTU21D;51375;44.836;38.672;2024-03-25T13:20:29;17.88;32.16
64882;HTU21D;51375;44.836;38.672;2024-03-25T13:22:55;17.87;32.37
64882;HTU21D;51375;44.836;38.672;2024-03-25T13:25:28;17.87;32.95
64882;HTU21D;51375;44.836;38.672;2024-03-25T13:27:55;17.85;32.49
64882;HTU21D;51375;44.836;38.672;2024-03-25T13:30:22;17.83;32.63
64882;HTU21D;51375;44.836;38.672;2024-03-25T13:32:52;17.81;32.65
64882;HTU21D;51375;44.836;38.672;2024-03-25T13:35:19;17.77;32.90
64882;HTU21D;51375;44.836;38.672;2024-03-25T13:37:45;17.81;33.09
64882;HTU21D;51375;44.836;38.672;2024-03-25T13:40:11;17.80;33.67
64882;HTU21D;51375;44.836;38.672;2024-03-25T13:42:37;17.80;33.22
64882;HTU21D;51375;44.836;38.672;2024-03-25T13:45:04;17.77;32.88
64882;HTU21D;51375;44.836;38.672;2024-03-25T13:47:30;17.70;33.05
64882;HTU21D;51375;44.836;38.672;2024-03-25T13:50:06;17.69;33.15
64882;HTU21D;51375;44.836;38.672;2024-03-25T13:52:35;17.70;33.45
64882;HTU21D;51375;44.836;38.672;2024-03-25T13:55:02;17.69;33.43
64882;HTU21D;51375;44.836;38.672;2024-03-25T13:57:28;17.63;33.28
64882;HTU21D;51375;44.836;38.672;2024-03-25T13:59:54;17.53;33.02
64882;HTU21D;51375;44.836;38.672;2024-03-25T14:02:20;17.44;33.21
64882;HTU21D;51375;44.836;38.672;2024-03-25T14:04:46;17.37;33.17
64882;HTU21D;51375;44.836;38.672;2024-03-25T14:07:12;17.30;32.91
64882;HTU21D;51375;44.836;38.672;2024-03-25T14:09:38;17.25;33.14
64882;HTU21D;51375;44.836;38.672;2024-03-25T14:12:04;17.18;32.98
64882;HTU21D;51375;44.836;38.672;2024-03-25T14:14:31;17.10;32.83
64882;HTU21D;51375;44.836;38.672;2024-03-25T14:16:57;17.02;33.13
64882;HTU21D;51375;44.836;38.672;2024-03-25T14:19:23;16.96;33.48
64882;HTU21D;51375;44.836;38.672;2024-03-25T14:21:49;16.92;33.31
64882;HTU21D;51375;44.836;38.672;2024-03-25T14:24:15;16.88;33.70
64882;HTU21D;51375;44.836;38.672;2024-03-25T14:26:41;16.84;33.23
64882;HTU21D;51375;44.836;38.672;2024-03-25T14:29:08;16.76;33.14
64882;HTU21D;51375;44.836;38.672;2024-03-25T14:31:34;16.67;33.26
64882;HTU21D;51375;44.836;38.672;2024-03-25T14:34:00;16.59;33.53
64882;HTU21D;51375;44.836;38.672;2024-03-25T14:36:25;16.51;33.85
64882;HTU21D;51375;44.836;38.672;2024-03-25T14:38:51;16.47;34.05
64882;HTU21D;51375;44.836;38.672;2024-03-25T14:41:19;16.42;34.14
64882;HTU21D;51375;44.836;38.672;2024-03-25T14:43:46;16.32;33.96
64882;HTU21D;51375;44.836;38.672;2024-03-25T14:46:12;16.26;34.15
64882;HTU21D;51375;44.836;38.672;2024-03-25T14:48:38;16.25;34.39
64882;HTU21D;51375;44.836;38.672;2024-03-25T14:51:04;16.18;34.47
64882;HTU21D;51375;44.836;38.672;2024-03-25T14:53:30;16.16;34.69
64882;HTU21D;51375;44.836;38.672;2024-03-25T14:55:56;16.13;34.91
64882;HTU21D;51375;44.836;38.672;2024-03-25T14:58:22;16.12;34.98
64882;HTU21D;51375;44.836;38.672;2024-03-25T15:00:48;16.13;34.75
64882;HTU21D;51375;44.836;38.672;2024-03-25T15:03:14;16.08;34.87
64882;HTU21D;51375;44.836;38.672;2024-03-25T15:05:40;16.02;34.94
64882;HTU21D;51375;44.836;38.672;2024-03-25T15:08:06;15.97;35.08